sensor_id;sensor_type;location;lat;lon;timestamp;P1;durP1;ratioP1;P2;durP2;ratioP2
57291;SDS011;43144;50.972;18.220;2023-04-06T00:05:24;52.20;;;34.70;;
57291;SDS011;43144;50.972;18.220;2023-04-06T00:15:13;40.20;;;28.40;;
57291;SDS011;43144;50.972;18.220;2023-04-06T00:25:05;47.40;;;33.20;;
57291;SDS011;43144;50.972;18.220;2023-04-06T00:34:55;38.40;;;30.70;;
57291;SDS011;43144;50.972;18.220;2023-04-06T00:44:45;54.50;;;31.80;;
57291;SDS011;43144;50.972;18.220;2023-04-06T00:54:34;34.20;;;27.20;;
57291;SDS011;43144;50.972;18.220;2023-04-06T01:11:44;17.40;;;14.70;;
57291;SDS011;43144;50.972;18.220;2023-04-06T01:21:37;38.10;;;30.00;;
57291;SDS011;43144;50.972;18.220;2023-04-06T01:31:29;38.50;;;28.90;;
57291;SDS011;43144;50.972;18.220;2023-04-06T01:41:19;41.30;;;30.90;;
57291;SDS011;43144;50.972;18.220;2023-04-06T01:51:09;36.50;;;28.20;;
57291;SDS011;43144;50.972;18.220;2023-04-06T02:00:59;32.70;;;27.10;;
57291;SDS011;43144;50.972;18.220;2023-04-06T02:10:48;21.20;;;16.80;;
57291;SDS011;43144;50.972;18.220;2023-04-06T02:18:11;41.00;;;32.60;;
57291;SDS011;43144;50.972;18.220;2023-04-06T02:28:00;80.30;;;30.50;;
57291;SDS011;43144;50.972;18.220;2023-04-06T02:37:51;118.70;;;57.40;;
57291;SDS011;43144;50.972;18.220;2023-04-06T02:47:41;67.50;;;39.10;;
57291;SDS011;43144;50.972;18.220;2023-04-06T02:57:32;44.80;;;34.30;;
57291;SDS011;43144;50.972;18.220;2023-04-06T03:07:22;68.40;;;45.90;;
57291;SDS011;43144;50.972;18.220;2023-04-06T03:17:11;55.80;;;37.70;;
57291;SDS011;43144;50.972;18.220;2023-04-06T03:27:00;36.50;;;29.40;;
57291;SDS011;43144;50.972;18.220;2023-04-06T03:36:50;34.10;;;27.90;;
57291;SDS011;43144;50.972;18.220;2023-04-06T03:44:12;51.10;;;41.60;;
57291;SDS011;43144;50.972;18.220;2023-04-06T03:54:01;25.60;;;22.50;;
57291;SDS011;43144;50.972;18.220;2023-04-06T04:03:51;47.80;;;34.90;;
57291;SDS011;43144;50.972;18.220;2023-04-06T04:11:13;59.00;;;43.10;;
57291;SDS011;43144;50.972;18.220;2023-04-06T04:21:02;49.50;;;32.40;;
57291;SDS011;43144;50.972;18.220;2023-04-06T04:30:52;53.50;;;38.40;;
57291;SDS011;43144;50.972;18.220;2023-04-06T04:40:43;54.90;;;38.40;;
57291;SDS011;43144;50.972;18.220;2023-04-06T04:57:53;41.20;;;25.80;;
57291;SDS011;43144;50.972;18.220;2023-04-06T05:07:43;74.00;;;46.80;;
57291;SDS011;43144;50.972;18.220;2023-04-06T05:17:33;62.50;;;44.80;;
57291;SDS011;43144;50.972;18.220;2023-04-06T05:27:25;59.10;;;47.10;;
57291;SDS011;43144;50.972;18.220;2023-04-06T05:34:49;59.80;;;45.90;;
57291;SDS011;43144;50.972;18.220;2023-04-06T05:44:39;46.00;;;36.80;;
57291;SDS011;43144;50.972;18.220;2023-04-06T05:54:29;36.50;;;32.40;;
57291;SDS011;43144;50.972;18.220;2023-04-06T06:04:19;43.30;;;33.30;;
57291;SDS011;43144;50.972;18.220;2023-04-06T06:14:08;47.90;;;38.00;;
57291;SDS011;43144;50.972;18.220;2023-04-06T06:21:31;51.00;;;40.10;;
57291;SDS011;43144;50.972;18.220;2023-04-06T06:31:26;44.10;;;34.30;;
57291;SDS011;43144;50.972;18.220;2023-04-06T06:41:15;42.80;;;29.80;;
57291;SDS011;43144;50.972;18.220;2023-04-06T06:51:04;40.10;;;30.40;;
57291;SDS011;43144;50.972;18.220;2023-04-06T06:56:00;50.90;;;33.00;;
57291;SDS011;43144;50.972;18.220;2023-04-06T07:06:00;50.00;;;29.30;;
57291;SDS011;43144;50.972;18.220;2023-04-06T07:15:50;26.50;;;23.70;;
57291;SDS011;43144;50.972;18.220;2023-04-06T07:25:39;24.50;;;22.10;;
57291;SDS011;43144;50.972;18.220;2023-04-06T07:35:30;33.50;;;25.10;;
57291;SDS011;43144;50.972;18.220;2023-04-06T07:45:27;28.30;;;22.40;;
57291;SDS011;43144;50.972;18.220;2023-04-06T07:55:17;11.40;;;10.40;;
57291;SDS011;43144;50.972;18.220;2023-04-06T08:05:10;11.80;;;10.90;;
57291;SDS011;43144;50.972;18.220;2023-04-06T08:15:08;17.10;;;15.60;;
57291;SDS011;43144;50.972;18.220;2023-04-06T08:24:59;13.00;;;11.60;;
57291;SDS011;43144;50.972;18.220;2023-04-06T08:34:48;12.50;;;10.90;;
57291;SDS011;43144;50.972;18.220;2023-04-06T08:44:43;12.40;;;11.40;;
57291;SDS011;43144;50.972;18.220;2023-04-06T08:54:37;10.50;;;9.40;;
57291;SDS011;43144;50.972;18.220;2023-04-06T09:04:37;12.00;;;8.20;;
57291;SDS011;43144;50.972;18.220;2023-04-06T09:14:34;9.20;;;8.50;;
57291;SDS011;43144;50.972;18.220;2023-04-06T10:15:39;7.20;;;6.70;;
57291;SDS011;43144;50.972;18.220;2023-04-06T10:25:34;8.30;;;7.70;;
57291;SDS011;43144;50.972;18.220;2023-04-06T10:35:37;6.80;;;6.30;;
57291;SDS011;43144;50.972;18.220;2023-04-06T10:45:37;6.60;;;6.10;;
57291;SDS011;43144;50.972;18.220;2023-04-06T10:55:36;5.90;;;5.60;;
57291;SDS011;43144;50.972;18.220;2023-04-06T11:05:38;4.90;;;4.40;;
57291;SDS011;43144;50.972;18.220;2023-04-06T11:15:45;5.10;;;4.90;;
57291;SDS011;43144;50.972;18.220;2023-04-06T11:25:51;6.30;;;5.70;;
57291;SDS011;43144;50.972;18.220;2023-04-06T11:35:48;6.50;;;5.50;;
57291;SDS011;43144;50.972;18.220;2023-04-06T11:45:43;11.10;;;9.70;;
57291;SDS011;43144;50.972;18.220;2023-04-06T11:55:41;9.10;;;8.20;;
57291;SDS011;43144;50.972;18.220;2023-04-06T12:05:32;6.50;;;5.90;;
57291;SDS011;43144;50.972;18.220;2023-04-06T12:15:35;17.50;;;11.80;;
57291;SDS011;43144;50.972;18.220;2023-04-06T12:25:24;7.40;;;6.80;;
57291;SDS011;43144;50.972;18.220;2023-04-06T12:35:17;6.40;;;5.90;;
57291;SDS011;43144;50.972;18.220;2023-04-06T12:45:38;8.10;;;7.40;;
57291;SDS011;43144;50.972;18.220;2023-04-06T12:55:31;8.30;;;7.60;;
57291;SDS011;43144;50.972;18.220;2023-04-06T13:05:20;8.60;;;8.10;;
57291;SDS011;43144;50.972;18.220;2023-04-06T13:15:22;7.80;;;7.20;;
57291;SDS011;43144;50.972;18.220;2023-04-06T13:25:15;9.10;;;8.40;;
57291;SDS011;43144;50.972;18.220;2023-04-06T13:35:07;10.10;;;8.80;;
57291;SDS011;43144;50.972;18.220;2023-04-06T13:44:57;10.40;;;9.70;;
57291;SDS011;43144;50.972;18.220;2023-04-06T13:54:49;11.40;;;10.30;;
57291;SDS011;43144;50.972;18.220;2023-04-06T14:04:39;18.50;;;12.70;;
57291;SDS011;43144;50.972;18.220;2023-04-06T14:14:28;10.60;;;10.00;;
57291;SDS011;43144;50.972;18.220;2023-04-06T14:24:17;12.40;;;11.30;;
57291;SDS011;43144;50.972;18.220;2023-04-06T14:34:07;30.90;;;12.50;;
57291;SDS011;43144;50.972;18.220;2023-04-06T14:43:57;9.50;;;7.20;;
57291;SDS011;43144;50.972;18.220;2023-04-06T14:53:50;10.90;;;10.00;;
57291;SDS011;43144;50.972;18.220;2023-04-06T15:03:44;15.10;;;11.20;;
57291;SDS011;43144;50.972;18.220;2023-04-06T15:13:37;15.80;;;10.90;;
57291;SDS011;43144;50.972;18.220;2023-04-06T15:23:28;12.30;;;11.10;;
57291;SDS011;43144;50.972;18.220;2023-04-06T15:33:17;12.30;;;11.30;;
57291;SDS011;43144;50.972;18.220;2023-04-06T15:43:12;11.30;;;10.60;;
57291;SDS011;43144;50.972;18.220;2023-04-06T15:53:01;15.80;;;12.60;;
57291;SDS011;43144;50.972;18.220;2023-04-06T16:02:50;13.10;;;12.30;;
57291;SDS011;43144;50.972;18.220;2023-04-06T16:12:44;12.80;;;11.40;;
57291;SDS011;43144;50.972;18.220;2023-04-06T16:22:34;18.50;;;16.80;;
57291;SDS011;43144;50.972;18.220;2023-04-06T16:32:24;11.80;;;10.90;;
57291;SDS011;43144;50.972;18.220;2023-04-06T16:42:13;13.00;;;12.00;;
57291;SDS011;43144;50.972;18.220;2023-04-06T16:52:03;14.60;;;13.50;;
57291;SDS011;43144;50.972;18.220;2023-04-06T17:01:52;8.90;;;8.30;;
57291;SDS011;43144;50.972;18.220;2023-04-06T17:11:41;11.60;;;10.90;;
57291;SDS011;43144;50.972;18.220;2023-04-06T17:21:30;14.10;;;13.00;;
57291;SDS011;43144;50.972;18.220;2023-04-06T17:31:22;12.20;;;11.20;;
57291;SDS011;43144;50.972;18.220;2023-04-06T17:41:11;17.50;;;11.40;;
57291;SDS011;43144;50.972;18.220;2023-04-06T17:51:01;13.70;;;12.70;;
57291;SDS011;43144;50.972;18.220;2023-04-06T18:00:50;11.40;;;10.60;;
57291;SDS011;43144;50.972;18.220;2023-04-06T18:10:39;17.60;;;10.30;;
57291;SDS011;43144;50.972;18.220;2023-04-06T18:20:29;12.30;;;11.40;;
57291;SDS011;43144;50.972;18.220;2023-04-06T18:30:18;11.40;;;10.40;;
57291;SDS011;43144;50.972;18.220;2023-04-06T18:40:09;11.80;;;11.10;;
57291;SDS011;43144;50.972;18.220;2023-04-06T18:50:19;15.00;;;14.00;;
57291;SDS011;43144;50.972;18.220;2023-04-06T19:00:10;14.80;;;13.60;;
57291;SDS011;43144;50.972;18.220;2023-04-06T19:10:01;15.50;;;14.10;;
57291;SDS011;43144;50.972;18.220;2023-04-06T19:19:51;21.00;;;14.70;;
57291;SDS011;43144;50.972;18.220;2023-04-06T19:29:42;18.10;;;16.20;;
57291;SDS011;43144;50.972;18.220;2023-04-06T19:39:31;17.00;;;15.70;;
57291;SDS011;43144;50.972;18.220;2023-04-06T19:49:21;19.20;;;17.40;;
57291;SDS011;43144;50.972;18.220;2023-04-06T19:59:10;17.80;;;16.30;;
57291;SDS011;43144;50.972;18.220;2023-04-06T20:08:59;16.50;;;14.90;;
57291;SDS011;43144;50.972;18.220;2023-04-06T20:26:09;17.40;;;15.70;;
57291;SDS011;43144;50.972;18.220;2023-04-06T20:35:59;19.70;;;17.30;;
57291;SDS011;43144;50.972;18.220;2023-04-06T20:45:49;52.00;;;28.20;;
57291;SDS011;43144;50.972;18.220;2023-04-06T20:55:40;19.00;;;17.50;;
57291;SDS011;43144;50.972;18.220;2023-04-06T21:05:30;20.30;;;18.70;;
57291;SDS011;43144;50.972;18.220;2023-04-06T21:15:20;24.40;;;14.90;;
57291;SDS011;43144;50.972;18.220;2023-04-06T21:25:09;20.10;;;18.30;;
57291;SDS011;43144;50.972;18.220;2023-04-06T21:35:00;18.00;;;16.40;;
57291;SDS011;43144;50.972;18.220;2023-04-06T21:44:49;15.40;;;14.00;;
57291;SDS011;43144;50.972;18.220;2023-04-06T21:54:39;23.30;;;20.90;;
57291;SDS011;43144;50.972;18.220;2023-04-06T22:04:28;23.70;;;21.60;;
57291;SDS011;43144;50.972;18.220;2023-04-06T22:14:18;27.20;;;24.80;;
57291;SDS011;43144;50.972;18.220;2023-04-06T22:24:11;15.30;;;13.80;;
57291;SDS011;43144;50.972;18.220;2023-04-06T22:34:00;42.70;;;29.50;;
57291;SDS011;43144;50.972;18.220;2023-04-06T22:43:49;41.70;;;30.90;;
57291;SDS011;43144;50.972;18.220;2023-04-06T22:53:38;22.10;;;20.30;;
57291;SDS011;43144;50.972;18.220;2023-04-06T23:03:27;28.10;;;25.50;;
57291;SDS011;43144;50.972;18.220;2023-04-06T23:13:17;29.70;;;26.90;;
57291;SDS011;43144;50.972;18.220;2023-04-06T23:23:06;25.30;;;23.30;;
57291;SDS011;43144;50.972;18.220;2023-04-06T23:32:56;27.20;;;24.90;;
57291;SDS011;43144;50.972;18.220;2023-04-06T23:42:45;27.50;;;25.10;;
57291;SDS011;43144;50.972;18.220;2023-04-06T23:52:35;29.60;;;26.40;;
